S S S Propeller — WDC8071 — position and weather

sailwx.info

Track history (hours):
 
Tides and Currents Weather Stations Pressure Air Temp Water Temp Dewpoint Dewpoint Depression Visibility Wind Speed Wind Dir Waves Ship Positions

S S S Propeller

Owner: S.S.S. Propeller Boy Scouts of America Chief Seattle Council, Auburn, WA. More information available from US FCC via Universal Licensing System and Coast Guard Vessel Documentation Center.

Last reported at 2017-Oct-13 04:34 UTC. Time now 2017-Oct-18 11:34 UTC.
Position N 47°39' W 122°20'.

Length 19 m.

Type: Passenger vessel. MMSI: 367028000.

Date/timePositionNaut miles runAvg speedWind from/ knotsBaromVisibWave heightAir tempDewpointWater temp
2017-Oct-13 04:34N 47°39' W 122°20'0 0.1
2017-Oct-13 04:30N 47°39' W 122°20'0 0.0
2017-Oct-13 03:57N 47°39' W 122°20'0 0.0
2017-Oct-13 03:28N 47°39' W 122°20'0 0.0
2017-Oct-13 02:58N 47°39' W 122°20'0 0.0
2017-Oct-13 02:28N 47°39' W 122°20'0 0.0
2017-Oct-13 02:00N 47°39' W 122°20'  
2017-Oct-08 17:57N 47°39' W 122°20'2 4.9
2017-Oct-08 17:30N 47°40' W 122°23'1 2.1
2017-Oct-08 17:00N 47°40' W 122°24'3 6.4
2017-Oct-08 16:30N 47°42' W 122°28'6 5.1
2017-Oct-08 15:18N 47°38' W 122°35'2 8.1
2017-Oct-08 15:00N 47°35' W 122°35'2 4.2
2017-Oct-08 14:28N 47°34' W 122°37'0 0.0
2017-Oct-08 13:52N 47°34' W 122°37'0 0.0
2017-Oct-08 13:22N 47°34' W 122°37'0 0.0
2017-Oct-08 12:58N 47°34' W 122°37'0 0.0
2017-Oct-08 12:28N 47°34' W 122°37'0 0.0
2017-Oct-08 11:58N 47°34' W 122°37'0 0.0
2017-Oct-08 11:28N 47°34' W 122°37'0 0.0
2017-Oct-08 10:58N 47°34' W 122°37'0 0.0
2017-Oct-08 10:28N 47°34' W 122°37'0 0.0
2017-Oct-08 09:46N 47°34' W 122°37'0 0.0
2017-Oct-08 09:22N 47°34' W 122°37'0 0.0
2017-Oct-08 08:46N 47°34' W 122°37'0 0.0
2017-Oct-08 08:19N 47°34' W 122°37'0 0.0
2017-Oct-08 07:52N 47°34' W 122°37'0 0.0
2017-Oct-08 07:28N 47°34' W 122°37'0 0.0
2017-Oct-08 06:58N 47°34' W 122°37'0 0.0
2017-Oct-08 06:28N 47°34' W 122°37'0 0.0
2017-Oct-08 05:58N 47°34' W 122°37'0 0.0
2017-Oct-08 05:28N 47°34' W 122°37'0 0.0
2017-Oct-08 04:58N 47°34' W 122°37'0 0.0
2017-Oct-08 04:28N 47°34' W 122°37'0 0.0
2017-Oct-08 03:40N 47°34' W 122°37'0 0.0
2017-Oct-08 03:28N 47°34' W 122°37'0 0.0
2017-Oct-08 02:58N 47°34' W 122°37'0 0.0
2017-Oct-08 02:22N 47°34' W 122°37'0 0.0
2017-Oct-08 01:58N 47°34' W 122°37'0 0.0
2017-Oct-08 01:22N 47°34' W 122°37'0 0.0
2017-Oct-08 00:58N 47°34' W 122°37'0 0.0
2017-Oct-08 00:28N 47°34' W 122°37'0 0.0
2017-Oct-07 23:52N 47°34' W 122°37'0 0.0
2017-Oct-07 23:28N 47°34' W 122°37'0 0.0
2017-Oct-07 22:46N 47°34' W 122°37'0 0.0
2017-Oct-07 22:28N 47°34' W 122°37'0 0.0
2017-Oct-07 21:40N 47°34' W 122°37'0 0.0
2017-Oct-07 21:25N 47°34' W 122°37'0 0.2
2017-Oct-07 21:00N 47°34' W 122°37'0 0.3
2017-Oct-07 20:19N 47°33' W 122°37'2 7.7
2017-Oct-07 20:00N 47°35' W 122°35'8 5.6
2017-Oct-07 18:34N 47°43' W 122°33'0 6.4
2017-Oct-07 18:30N 47°43' W 122°33'4 7.7
2017-Oct-07 18:00N 47°42' W 122°28'3 6.2
2017-Oct-07 17:28N 47°40' W 122°24'1 2.0
2017-Oct-07 16:59N 47°39' W 122°23'0 0.3
2017-Oct-07 16:30N 47°40' W 122°22'2 3.1
2017-Oct-07 15:55N 47°39' W 122°20'0 0.0
2017-Oct-07 15:27N 47°39' W 122°20'0 0.0
2017-Oct-07 15:00N 47°39' W 122°20'0 0.0
2017-Oct-07 14:30N 47°39' W 122°20'0 0.0
2017-Oct-07 02:58N 47°39' W 122°20'0 0.0
2017-Oct-07 02:28N 47°39' W 122°20'0 0.0
2017-Oct-07 01:58N 47°39' W 122°20'0 0.0
2017-Oct-07 01:27N 47°39' W 122°20'0 0.0
2017-Oct-07 00:58N 47°39' W 122°20'0 0.0
2017-Oct-07 00:28N 47°39' W 122°20'  
Track history (hours):
 
Tides and Currents Weather Stations Pressure Air Temp Water Temp Dewpoint Dewpoint Depression Visibility Wind Speed Wind Dir Waves Ship Positions

S S S Propeller

Owner: S.S.S. Propeller Boy Scouts of America Chief Seattle Council, Auburn, WA. More information available from US FCC via Universal Licensing System and Coast Guard Vessel Documentation Center.

Last reported at 2017-Oct-13 04:34 UTC. Time now 2017-Oct-18 11:34 UTC.
Position N 47°39' W 122°20'.

Length 19 m.

Type: Passenger vessel. MMSI: 367028000.

Date/timePositionNaut miles runAvg speedWind from/ knotsBaromVisibWave heightAir tempDewpointWater temp
2017-Oct-13 04:34N 47°39' W 122°20'0 0.1
2017-Oct-13 04:30N 47°39' W 122°20'0 0.0
2017-Oct-13 03:57N 47°39' W 122°20'0 0.0
2017-Oct-13 03:28N 47°39' W 122°20'0 0.0
2017-Oct-13 02:58N 47°39' W 122°20'0 0.0
2017-Oct-13 02:28N 47°39' W 122°20'0 0.0
2017-Oct-13 02:00N 47°39' W 122°20'  
2017-Oct-08 17:57N 47°39' W 122°20'2 4.9
2017-Oct-08 17:30N 47°40' W 122°23'1 2.1
2017-Oct-08 17:00N 47°40' W 122°24'3 6.4
2017-Oct-08 16:30N 47°42' W 122°28'6 5.1
2017-Oct-08 15:18N 47°38' W 122°35'2 8.1
2017-Oct-08 15:00N 47°35' W 122°35'2 4.2
2017-Oct-08 14:28N 47°34' W 122°37'0 0.0
2017-Oct-08 13:52N 47°34' W 122°37'0 0.0
2017-Oct-08 13:22N 47°34' W 122°37'0 0.0
2017-Oct-08 12:58N 47°34' W 122°37'0 0.0
2017-Oct-08 12:28N 47°34' W 122°37'0 0.0
2017-Oct-08 11:58N 47°34' W 122°37'0 0.0
2017-Oct-08 11:28N 47°34' W 122°37'0 0.0
2017-Oct-08 10:58N 47°34' W 122°37'0 0.0
2017-Oct-08 10:28N 47°34' W 122°37'0 0.0
2017-Oct-08 09:46N 47°34' W 122°37'0 0.0
2017-Oct-08 09:22N 47°34' W 122°37'0 0.0
2017-Oct-08 08:46N 47°34' W 122°37'0 0.0
2017-Oct-08 08:19N 47°34' W 122°37'0 0.0
2017-Oct-08 07:52N 47°34' W 122°37'0 0.0
2017-Oct-08 07:28N 47°34' W 122°37'0 0.0
2017-Oct-08 06:58N 47°34' W 122°37'0 0.0
2017-Oct-08 06:28N 47°34' W 122°37'0 0.0
2017-Oct-08 05:58N 47°34' W 122°37'0 0.0
2017-Oct-08 05:28N 47°34' W 122°37'0 0.0
2017-Oct-08 04:58N 47°34' W 122°37'0 0.0
2017-Oct-08 04:28N 47°34' W 122°37'0 0.0
2017-Oct-08 03:40N 47°34' W 122°37'0 0.0
2017-Oct-08 03:28N 47°34' W 122°37'0 0.0
2017-Oct-08 02:58N 47°34' W 122°37'0 0.0
2017-Oct-08 02:22N 47°34' W 122°37'0 0.0
2017-Oct-08 01:58N 47°34' W 122°37'0 0.0
2017-Oct-08 01:22N 47°34' W 122°37'0 0.0
2017-Oct-08 00:58N 47°34' W 122°37'0 0.0
2017-Oct-08 00:28N 47°34' W 122°37'0 0.0
2017-Oct-07 23:52N 47°34' W 122°37'0 0.0
2017-Oct-07 23:28N 47°34' W 122°37'0 0.0
2017-Oct-07 22:46N 47°34' W 122°37'0 0.0
2017-Oct-07 22:28N 47°34' W 122°37'0 0.0
2017-Oct-07 21:40N 47°34' W 122°37'0 0.0
2017-Oct-07 21:25N 47°34' W 122°37'0 0.2
2017-Oct-07 21:00N 47°34' W 122°37'0 0.3
2017-Oct-07 20:19N 47°33' W 122°37'2 7.7
2017-Oct-07 20:00N 47°35' W 122°35'8 5.6
2017-Oct-07 18:34N 47°43' W 122°33'0 6.4
2017-Oct-07 18:30N 47°43' W 122°33'4 7.7
2017-Oct-07 18:00N 47°42' W 122°28'3 6.2
2017-Oct-07 17:28N 47°40' W 122°24'1 2.0
2017-Oct-07 16:59N 47°39' W 122°23'0 0.3
2017-Oct-07 16:30N 47°40' W 122°22'2 3.1
2017-Oct-07 15:55N 47°39' W 122°20'0 0.0
2017-Oct-07 15:27N 47°39' W 122°20'0 0.0
2017-Oct-07 15:00N 47°39' W 122°20'0 0.0
2017-Oct-07 14:30N 47°39' W 122°20'0 0.0
2017-Oct-07 02:58N 47°39' W 122°20'0 0.0
2017-Oct-07 02:28N 47°39' W 122°20'0 0.0
2017-Oct-07 01:58N 47°39' W 122°20'0 0.0
2017-Oct-07 01:27N 47°39' W 122°20'0 0.0
2017-Oct-07 00:58N 47°39' W 122°20'0 0.0
2017-Oct-07 00:28N 47°39' W 122°20'  

Dump ship's entire track history